Time;durP1;ratioP1;P1;durP2;ratioP2;P2;SDS_P1;SDS_P2;PMS_P1;PMS_P2;Temp;Humidity;BMP_temperature;BMP_pressure;BME280_temperature;BME280_humidity;BME280_pressure;Samples;Min_cycle;Max_cycle;Signal;HPM_P1;HPM_P2
2022/06/21 00:01:18;;;;;;;8.20;5.40;;;12.80;99.90;;;;;;5031729;28;20583;-80
2022/06/21 00:03:47;;;;;;;10.47;5.30;;;12.80;99.90;;;;;;5031242;28;20702;-80
2022/06/21 00:06:18;;;;;;;9.53;5.03;;;12.80;99.90;;;;;;5030289;28;20698;-82
2022/06/21 00:08:45;;;;;;;6.57;5.33;;;12.80;99.90;;;;;;5033209;28;20229;-80
2022/06/21 00:11:16;;;;;;;15.13;5.20;;;12.80;99.90;;;;;;5033659;28;20224;-81
2022/06/21 00:13:44;;;;;;;10.40;5.47;;;12.70;99.90;;;;;;5033413;28;20734;-80
2022/06/21 00:16:13;;;;;;;11.73;5.97;;;12.70;99.90;;;;;;5039324;28;20218;-80
2022/06/21 00:18:42;;;;;;;10.23;5.10;;;12.70;99.90;;;;;;5036993;28;20272;-81
2022/06/21 00:21:23;;;;;;;9.07;4.93;;;12.70;99.90;;;;;;5052272;28;20219;-81
2022/06/21 00:23:51;;;;;;;8.13;4.93;;;12.60;99.90;;;;;;5037536;28;20617;-80
2022/06/21 00:26:21;;;;;;;7.30;4.60;;;12.50;99.90;;;;;;5040904;28;20673;-80
2022/06/21 00:28:48;;;;;;;10.03;5.50;;;12.60;99.90;;;;;;5038478;28;20689;-82
2022/06/21 00:31:21;;;;;;;9.60;6.40;;;12.50;99.90;;;;;;5035223;28;20210;-80
2022/06/21 00:33:48;;;;;;;6.43;4.57;;;12.50;99.90;;;;;;5042711;28;20206;-79
2022/06/21 00:36:26;;;;;;;8.77;4.87;;;12.50;99.90;;;;;;5036097;28;20214;-80
2022/06/21 00:38:55;;;;;;;8.93;5.30;;;12.50;99.90;;;;;;5043396;28;20231;-80
2022/06/21 00:41:42;;;;;;;8.83;4.90;;;12.50;99.90;;;;;;5037747;28;20318;-82
2022/06/21 00:44:27;;;;;;;8.67;4.80;;;12.40;99.90;;;;;;5038696;28;20267;-82
2022/06/21 00:47:28;;;;;;;5.83;4.63;;;12.40;99.90;;;;;;5042581;28;20216;-80
2022/06/21 00:50:02;;;;;;;10.53;5.03;;;12.40;99.90;;;;;;5040830;28;20230;-81
2022/06/21 00:52:47;;;;;;;10.17;4.93;;;12.40;99.90;;;;;;5040422;28;20204;-82
2022/06/21 00:55:52;;;;;;;10.43;5.47;;;12.40;99.90;;;;;;5032678;28;20218;-80
2022/06/21 00:58:22;;;;;;;10.27;5.07;;;12.30;99.90;;;;;;5032717;28;20279;-80
2022/06/21 01:01:07;;;;;;;10.87;5.17;;;12.20;99.90;;;;;;5035451;28;20291;-81
2022/06/21 01:03:44;;;;;;;10.03;5.23;;;12.20;99.90;;;;;;5036102;28;20244;-80
2022/06/21 01:06:31;;;;;;;7.00;5.37;;;12.20;99.90;;;;;;5040857;28;20206;-80
2022/06/21 01:09:07;;;;;;;8.23;5.17;;;12.20;99.90;;;;;;5040244;28;20934;-81
2022/06/21 01:11:41;;;;;;;12.23;6.50;;;12.10;99.90;;;;;;5041810;28;20216;-80
2022/06/21 01:14:09;;;;;;;10.93;5.87;;;12.10;99.90;;;;;;5039128;28;20206;-81
2022/06/21 01:16:38;;;;;;;10.83;5.87;;;12.10;99.90;;;;;;5042615;28;20213;-81
2022/06/21 01:19:16;;;;;;;11.13;5.83;;;12.00;99.90;;;;;;5044008;28;20234;-80
2022/06/21 01:21:48;;;;;;;7.93;5.10;;;12.00;99.90;;;;;;5043896;28;20205;-81
2022/06/21 01:24:50;;;;;;;11.13;5.50;;;11.90;99.90;;;;;;5041306;28;20230;-81
2022/06/21 01:27:18;;;;;;;8.10;5.50;;;11.90;99.90;;;;;;5040945;28;20542;-80
2022/06/21 01:29:45;;;;;;;9.87;5.97;;;11.80;99.90;;;;;;5050814;28;20743;-79
2022/06/21 01:32:12;;;;;;;7.93;5.73;;;11.80;99.90;;;;;;5033850;28;20288;-80
2022/06/21 01:34:39;;;;;;;8.57;5.80;;;11.80;99.90;;;;;;5040280;28;20206;-81
2022/06/21 01:37:19;;;;;;;12.07;5.90;;;11.80;99.90;;;;;;5040169;28;20217;-81
2022/06/21 01:40:00;;;;;;;8.20;5.27;;;11.70;99.90;;;;;;5056691;28;20229;-82
2022/06/21 01:42:42;;;;;;;7.20;5.23;;;11.60;99.90;;;;;;5064336;28;20193;-82
2022/06/21 01:45:15;;;;;;;10.83;6.27;;;11.60;99.90;;;;;;5063316;28;20232;-81
2022/06/21 01:47:49;;;;;;;13.90;5.93;;;11.60;99.90;;;;;;5066822;28;20190;-82
2022/06/21 01:50:16;;;;;;;12.93;6.07;;;11.60;99.90;;;;;;5058173;28;20202;-81
2022/06/21 01:52:47;;;;;;;11.67;5.90;;;11.50;99.90;;;;;;5049825;28;20210;-81
2022/06/21 01:55:27;;;;;;;6.90;5.23;;;11.50;99.90;;;;;;5039365;28;20225;-81
2022/06/21 01:57:56;;;;;;;9.40;5.43;;;11.40;99.90;;;;;;5041244;28;20206;-81
2022/06/21 02:00:23;;;;;;;7.40;5.47;;;11.40;99.90;;;;;;5041515;28;20252;-80
2022/06/21 02:02:55;;;;;;;6.77;5.27;;;11.40;99.90;;;;;;5046018;28;20230;-84
2022/06/21 02:05:30;;;;;;;7.53;5.70;;;11.40;99.90;;;;;;5032004;28;20279;-81
2022/06/21 02:08:02;;;;;;;7.80;5.43;;;11.40;99.90;;;;;;5032025;28;20216;-81
2022/06/21 02:10:41;;;;;;;10.60;5.73;;;11.30;99.90;;;;;;5031870;28;20225;-81
2022/06/21 02:13:20;;;;;;;5.17;4.43;;;11.30;99.90;;;;;;5031385;28;20213;-81
2022/06/21 02:15:51;;;;;;;7.20;5.57;;;11.30;99.90;;;;;;5031036;28;20292;-83
2022/06/21 02:18:22;;;;;;;9.07;5.33;;;11.30;99.90;;;;;;5030766;28;20210;-82
2022/06/21 02:21:05;;;;;;;5.93;5.33;;;11.20;99.90;;;;;;5041608;28;20804;-82
2022/06/21 02:23:32;;;;;;;9.07;5.63;;;11.20;99.90;;;;;;5038486;28;20209;-82
2022/06/21 02:25:59;;;;;;;5.93;5.13;;;11.20;99.90;;;;;;5042007;28;20220;-80
2022/06/21 02:28:28;;;;;;;8.77;6.40;;;11.20;99.90;;;;;;5037203;28;20213;-81
2022/06/21 02:30:58;;;;;;;9.30;5.67;;;11.10;99.90;;;;;;5038128;28;20249;-82
2022/06/21 02:33:31;;;;;;;8.57;5.73;;;11.10;99.90;;;;;;5043101;28;20208;-82
2022/06/21 02:36:00;;;;;;;10.67;6.93;;;11.10;99.90;;;;;;5040659;28;20687;-81
2022/06/21 02:38:35;;;;;;;11.63;6.87;;;11.00;99.90;;;;;;5038680;28;20235;-81
2022/06/21 02:41:06;;;;;;;15.90;6.20;;;11.00;99.90;;;;;;5037244;28;20299;-82
2022/06/21 02:43:50;;;;;;;7.40;5.70;;;10.80;99.90;;;;;;5038744;28;20793;-81
2022/06/21 02:46:22;;;;;;;7.97;5.23;;;10.90;99.90;;;;;;5040914;28;20221;-82
2022/06/21 02:48:55;;;;;;;5.83;4.97;;;10.80;99.90;;;;;;5040693;28;20814;-81
2022/06/21 02:51:27;;;;;;;9.33;6.23;;;10.80;99.90;;;;;;5034792;28;20634;-79
2022/06/21 02:54:07;;;;;;;10.10;6.00;;;10.70;99.90;;;;;;5034641;28;20214;-80
2022/06/21 02:56:43;;;;;;;10.33;7.27;;;10.70;99.90;;;;;;5029122;28;20212;-81
2022/06/21 02:59:11;;;;;;;8.50;6.10;;;10.70;99.90;;;;;;5029118;28;21557;-81
2022/06/21 03:01:44;;;;;;;9.00;5.83;;;10.70;99.90;;;;;;5039665;28;20270;-80
2022/06/21 03:04:36;;;;;;;9.97;6.00;;;10.70;99.90;;;;;;5037597;28;20234;-80
2022/06/21 03:07:05;;;;;;;7.10;5.47;;;10.70;99.90;;;;;;5045025;28;20671;-81
2022/06/21 03:09:34;;;;;;;9.03;6.40;;;10.70;99.90;;;;;;5039187;28;20283;-81
2022/06/21 03:12:04;;;;;;;10.30;5.77;;;10.60;99.90;;;;;;5038103;28;20217;-81
2022/06/21 03:14:34;;;;;;;11.77;5.77;;;10.70;99.90;;;;;;5040264;28;20218;-82
2022/06/21 03:17:04;;;;;;;9.10;5.90;;;10.70;99.90;;;;;;5039348;28;20295;-82
2022/06/21 03:19:33;;;;;;;7.57;5.50;;;10.70;99.90;;;;;;5039042;28;20275;-80
2022/06/21 03:22:03;;;;;;;12.60;6.27;;;10.70;99.90;;;;;;5042099;28;20215;-81
2022/06/21 03:24:32;;;;;;;7.03;5.43;;;10.70;99.90;;;;;;5049197;28;20232;-77
2022/06/21 03:27:07;;;;;;;8.57;6.00;;;10.70;99.90;;;;;;5057836;28;20316;-81
2022/06/21 03:29:34;;;;;;;8.47;6.07;;;10.80;99.90;;;;;;5057907;28;20261;-81
2022/06/21 03:32:03;;;;;;;11.27;5.63;;;10.70;99.90;;;;;;5056169;28;20208;-81
2022/06/21 03:34:32;;;;;;;13.97;5.90;;;10.80;99.90;;;;;;5056142;28;20216;-80
2022/06/21 03:37:00;;;;;;;12.37;5.87;;;10.80;99.90;;;;;;5054326;28;20204;-80
2022/06/21 03:42:20;;;;;;;9.07;5.60;;;10.90;99.90;;;;;;5042407;28;20626;-81
2022/06/21 03:44:54;;;;;;;9.07;5.77;;;10.90;99.90;;;;;;5038397;28;20242;-82
2022/06/21 03:47:37;;;;;;;7.20;5.27;;;11.00;99.90;;;;;;5036942;28;20272;-80
2022/06/21 03:50:25;;;;;;;14.20;5.80;;;11.20;99.90;;;;;;5040175;28;20347;-81
2022/06/21 03:53:18;;;;;;;7.70;5.90;;;11.30;99.90;;;;;;5040682;28;20225;-81
2022/06/21 03:55:48;;;;;;;10.53;5.33;;;11.50;99.90;;;;;;5039518;28;20658;-81
2022/06/21 03:58:21;;;;;;;8.07;5.70;;;11.50;99.90;;;;;;5040220;28;20259;-78
2022/06/21 04:01:10;;;;;;;8.97;6.10;;;11.60;99.90;;;;;;5039459;28;20624;-81
2022/06/21 04:04:05;;;;;;;9.07;5.73;;;11.70;99.90;;;;;;5035376;28;20269;-81
2022/06/21 04:06:52;;;;;;;7.43;5.80;;;11.80;99.90;;;;;;5037212;28;20215;-80
2022/06/21 04:09:34;;;;;;;8.93;6.70;;;11.80;99.90;;;;;;5038445;28;20234;-80
2022/06/21 04:12:22;;;;;;;8.93;5.20;;;11.90;99.90;;;;;;5037609;28;20231;-81
2022/06/21 04:14:53;;;;;;;8.73;5.33;;;11.90;99.90;;;;;;5035804;28;20201;-81
2022/06/21 04:17:33;;;;;;;8.10;5.60;;;11.90;99.90;;;;;;5041138;28;20214;-80
2022/06/21 04:20:16;;;;;;;9.17;5.60;;;11.90;99.90;;;;;;5041332;28;20263;-81
2022/06/21 04:23:06;;;;;;;10.80;6.17;;;12.00;99.90;;;;;;5041790;28;20216;-81
2022/06/21 04:25:38;;;;;;;10.63;5.93;;;11.90;99.90;;;;;;5044555;28;20533;-81
2022/06/21 04:28:21;;;;;;;7.93;5.63;;;11.80;99.90;;;;;;5045293;28;20214;-81
2022/06/21 04:31:08;;;;;;;10.67;5.67;;;11.70;99.90;;;;;;5039683;28;20256;-80
2022/06/21 04:33:58;;;;;;;9.90;5.93;;;11.80;99.90;;;;;;5045790;28;20294;-82
2022/06/21 04:36:46;;;;;;;11.50;5.50;;;11.70;99.90;;;;;;5042061;28;20300;-81
2022/06/21 04:39:38;;;;;;;12.37;5.83;;;11.70;99.90;;;;;;5044555;28;20280;-81
2022/06/21 04:42:12;;;;;;;10.77;6.00;;;11.80;99.90;;;;;;5040648;28;20248;-80
2022/06/21 04:44:57;;;;;;;7.63;4.93;;;11.70;99.90;;;;;;5041027;28;20213;-81
2022/06/21 04:47:47;;;;;;;8.40;5.80;;;11.80;99.90;;;;;;5040971;28;20205;-81
2022/06/21 04:50:31;;;;;;;7.80;5.90;;;11.80;99.90;;;;;;5039745;28;20256;-81
2022/06/21 04:53:15;;;;;;;9.63;6.10;;;11.80;99.90;;;;;;5043861;28;20594;-80
2022/06/21 04:56:13;;;;;;;9.00;6.13;;;11.80;99.90;;;;;;5041877;28;20234;-80
2022/06/21 04:58:41;;;;;;;9.50;6.63;;;11.80;99.90;;;;;;5045190;28;20216;-80
2022/06/21 05:03:58;;;;;;;16.23;7.77;;;11.90;99.90;;;;;;5036015;28;20322;-81
2022/06/21 05:06:25;;;;;;;13.83;7.90;;;12.00;99.90;;;;;;5032682;28;20245;-81
2022/06/21 05:08:53;;;;;;;13.27;7.70;;;12.10;99.90;;;;;;5031583;28;20214;-81
2022/06/21 05:11:23;;;;;;;13.47;7.77;;;12.10;99.90;;;;;;5032389;28;20214;-81
2022/06/21 05:13:54;;;;;;;11.63;7.03;;;12.20;99.90;;;;;;5032169;28;20265;-82
2022/06/21 05:16:39;;;;;;;9.93;7.07;;;12.30;99.90;;;;;;5031905;28;20219;-81
2022/06/21 05:19:15;;;;;;;12.70;7.73;;;12.30;99.90;;;;;;5036043;28;20225;-80
2022/06/21 05:21:57;;;;;;;10.57;7.90;;;12.40;99.90;;;;;;5039830;28;20683;-81
2022/06/21 05:24:24;;;;;;;12.00;7.90;;;12.50;99.90;;;;;;5042929;28;20227;-81
2022/06/21 05:27:09;;;;;;;10.93;5.70;;;12.90;99.90;;;;;;5043490;28;20723;-82
2022/06/21 05:30:15;;;;;;;13.97;5.73;;;14.10;99.90;;;;;;5037533;28;20206;-80
2022/06/21 05:32:49;;;;;;;9.15;4.90;;;16.00;99.90;;;;;;5033847;28;20204;-80
2022/06/21 05:35:22;;;;;;;5.45;3.85;;;17.50;99.90;;;;;;5041345;28;20294;-79
2022/06/21 05:38:01;;;;;;;7.03;3.38;;;18.90;99.90;;;;;;5041665;28;20266;-80
2022/06/21 05:40:43;;;;;;;5.63;3.08;;;20.30;99.90;;;;;;5038626;28;20229;-80
2022/06/21 05:43:17;;;;;;;8.35;3.33;;;21.20;99.90;;;;;;5039312;28;20201;-80
2022/06/21 05:45:51;;;;;;;7.43;2.83;;;22.00;99.90;;;;;;5041158;28;20300;-80
2022/06/21 05:48:25;;;;;;;5.32;3.20;;;22.80;99.90;;;;;;5041212;28;20272;-78
2022/06/21 05:50:52;;;;;;;10.20;3.33;;;23.50;99.90;;;;;;5035504;28;20213;-78
2022/06/21 05:53:35;;;;;;;6.68;2.95;;;24.10;99.90;;;;;;5042466;28;20232;-80
2022/06/21 05:56:05;;;;;;;4.35;2.55;;;;;;;;;;5039575;28;20225;-79
2022/06/21 05:58:37;;;;;;;8.13;2.88;;;24.90;99.90;;;;;;5042764;28;20290;-80
2022/06/21 06:01:21;;;;;;;7.85;2.80;;;25.20;99.90;;;;;;5044400;28;20230;-79
2022/06/21 06:04:07;;;;;;;7.82;3.28;;;25.60;99.90;;;;;;5039015;28;20230;-79
2022/06/21 06:06:36;;;;;;;7.10;3.08;;;26.10;99.90;;;;;;5038011;28;20734;-79
2022/06/21 06:09:10;;;;;;;8.05;2.95;;;26.30;99.90;;;;;;5041568;28;20213;-79
2022/06/21 06:12:06;;;;;;;7.47;2.78;;;26.70;99.90;;;;;;5036920;28;20259;-80
2022/06/21 06:14:42;;;;;;;4.97;2.33;;;26.90;99.90;;;;;;5038200;28;20563;-79
2022/06/21 06:17:46;;;;;;;7.55;3.55;;;27.00;99.90;;;;;;5039892;28;20724;-79
2022/06/21 06:20:38;;;;;;;7.25;3.50;;;27.10;98.80;;;;;;5042578;28;20285;-80
2022/06/21 06:23:28;;;;;;;6.10;3.10;;;27.30;97.80;;;;;;5041905;28;20271;-79
2022/06/21 06:26:00;;;;;;;6.50;3.20;;;27.60;97.50;;;;;;5041296;28;20306;-79
2022/06/21 06:28:46;;;;;;;5.22;2.65;;;27.70;97.20;;;;;;5041930;28;20259;-82
2022/06/21 06:31:36;;;;;;;7.50;3.08;;;28.00;96.80;;;;;;5042100;28;20730;-81
2022/06/21 06:34:10;;;;;;;6.57;2.80;;;28.30;95.60;;;;;;5041475;28;20573;-81
2022/06/21 06:36:41;;;;;;;6.80;2.47;;;28.40;95.00;;;;;;5039510;28;20206;-80
2022/06/21 06:39:21;;;;;;;8.48;2.88;;;28.60;94.30;;;;;;5038403;28;20242;-82
2022/06/21 06:41:58;;;;;;;5.68;2.45;;;28.70;93.40;;;;;;5039459;28;20233;-79
2022/06/21 06:44:36;;;;;;;7.40;2.65;;;28.50;93.10;;;;;;5038515;28;20232;-84
2022/06/21 06:47:04;;;;;;;7.07;2.67;;;28.50;94.10;;;;;;5039951;28;20229;-80
2022/06/21 06:49:37;;;;;;;7.30;3.05;;;28.50;93.30;;;;;;5041102;28;20344;-81
2022/06/21 06:52:22;;;;;;;5.78;3.03;;;28.40;92.40;;;;;;5051549;28;20608;-83
2022/06/21 06:55:08;;;;;;;7.65;2.83;;;28.10;92.00;;;;;;5049690;28;20337;-79
2022/06/21 06:57:43;;;;;;;6.38;2.70;;;27.90;92.70;;;;;;5044748;28;20263;-80
2022/06/21 07:00:16;;;;;;;5.95;3.40;;;27.90;92.70;;;;;;5036934;28;20209;-81
2022/06/21 07:02:54;;;;;;;4.47;2.55;;;28.00;92.70;;;;;;5044257;28;20666;-80
2022/06/21 07:05:47;;;;;;;5.90;2.95;;;28.30;92.50;;;;;;5044197;28;20214;-80
2022/06/21 07:08:39;;;;;;;5.30;3.00;;;28.70;91.40;;;;;;5040471;28;20209;-81
2022/06/21 07:11:32;;;;;;;7.90;2.88;;;28.90;91.10;;;;;;5041564;28;20225;-80
2022/06/21 07:14:00;;;;;;;5.32;3.17;;;28.90;90.80;;;;;;5034788;28;20250;-80
2022/06/21 07:16:30;;;;;;;5.03;3.05;;;28.40;91.10;;;;;;5041489;28;20232;-81
2022/06/21 07:19:01;;;;;;;6.82;3.17;;;28.30;91.30;;;;;;5048670;28;20213;-80
2022/06/21 07:21:28;;;;;;;7.93;3.20;;;28.30;91.20;;;;;;5063477;28;20259;-81
2022/06/21 07:23:59;;;;;;;9.73;4.00;;;28.40;91.30;;;;;;5043042;28;20217;-80
2022/06/21 07:26:39;;;;;;;10.35;2.60;;;28.30;91.10;;;;;;5047531;28;20556;-79
2022/06/21 07:29:34;;;;;;;7.30;2.88;;;28.50;90.30;;;;;;5053860;28;20201;-80
2022/06/21 07:32:09;;;;;;;5.38;2.65;;;28.80;90.00;;;;;;5051333;28;20240;-80
2022/06/21 07:35:18;;;;;;;4.32;2.22;;;29.10;90.20;;;;;;5053630;28;20208;-80
2022/06/21 07:37:56;;;;;;;5.05;2.20;;;29.50;91.00;;;;;;5039487;28;20221;-80
2022/06/21 07:41:02;;;;;;;4.85;1.85;;;29.90;88.00;;;;;;5041995;28;20229;-82
2022/06/21 07:43:42;;;;;;;3.95;1.30;;;30.10;86.50;;;;;;5044033;28;20508;-78
2022/06/21 07:46:14;;;;;;;4.90;1.90;;;30.50;84.50;;;;;;5042521;28;20206;-80
2022/06/21 07:48:56;;;;;;;5.85;2.08;;;30.50;83.30;;;;;;5042442;28;20212;-79
2022/06/21 07:51:29;;;;;;;4.00;1.60;;;30.60;81.30;;;;;;5038871;28;20201;-79
2022/06/21 07:54:07;;;;;;;4.57;1.77;;;30.50;81.90;;;;;;5044593;28;20205;-80
2022/06/21 07:56:42;;;;;;;7.30;2.00;;;30.30;82.80;;;;;;5034570;28;20271;-79
2022/06/21 07:59:10;;;;;;;6.20;1.75;;;;;;;;;;5033903;28;20228;-80
2022/06/21 08:07:41;;;;;;;5.20;1.83;;;29.40;80.60;;;;;;5042954;28;20673;-79
2022/06/21 08:10:11;;;;;;;5.00;1.88;;;28.70;82.90;;;;;;5040986;28;20270;-82
2022/06/21 08:12:38;;;;;;;3.97;1.60;;;28.60;83.10;;;;;;5040640;28;20284;-81
2022/06/21 08:15:05;;;;;;;7.30;2.10;;;28.60;81.60;;;;;;5039554;28;20287;-81
2022/06/21 08:17:59;;;;;;;4.03;1.58;;;28.60;80.60;;;;;;5042637;28;20221;-80
2022/06/21 08:20:32;;;;;;;2.45;1.58;;;28.60;80.10;;;;;;5041810;28;20662;-78
2022/06/21 08:23:08;;;;;;;3.30;1.92;;;28.50;80.00;;;;;;5040857;28;20214;-79
2022/06/21 08:25:59;;;;;;;7.40;2.17;;;28.60;80.70;;;;;;5039501;28;20225;-80
2022/06/21 08:28:35;;;;;;;3.53;2.03;;;28.60;83.00;;;;;;5040073;28;20658;-82
2022/06/21 08:31:36;;;;;;;3.55;1.25;;;28.70;81.40;;;;;;5039059;28;20212;-80
2022/06/21 08:34:32;;;;;;;5.53;1.20;;;28.80;77.40;;;;;;5047229;28;20205;-80
2022/06/21 08:37:06;;;;;;;3.33;1.00;;;28.80;77.50;;;;;;5040584;28;20260;-78
2022/06/21 08:39:49;;;;;;;2.83;1.40;;;28.70;78.20;;;;;;5039203;28;20240;-79
2022/06/21 08:42:35;;;;;;;4.50;1.25;;;28.70;78.00;;;;;;5040882;28;20291;-80
2022/06/21 08:45:41;;;;;;;4.15;1.50;;;28.70;78.10;;;;;;5041024;28;20281;-79
2022/06/21 08:48:43;;;;;;;6.88;1.52;;;28.50;79.50;;;;;;5042603;28;20584;-80
2022/06/21 08:51:31;;;;;;;3.30;1.42;;;28.50;79.00;;;;;;5038782;28;20217;-78
2022/06/21 08:54:12;;;;;;;4.97;1.30;;;28.40;80.50;;;;;;5039829;28;20565;-80
2022/06/21 08:57:04;;;;;;;4.60;1.63;;;28.50;79.20;;;;;;5042470;28;20209;-79
2022/06/21 08:59:56;;;;;;;4.57;1.40;;;28.60;79.10;;;;;;5038947;28;20202;-80
2022/06/21 09:02:56;;;;;;;3.05;1.33;;;28.70;78.00;;;;;;5042747;28;20222;-81
2022/06/21 09:05:37;;;;;;;4.18;1.55;;;28.70;78.80;;;;;;5040260;28;20210;-80
2022/06/21 09:08:31;;;;;;;5.22;1.80;;;28.50;79.30;;;;;;5035555;28;20220;-79
2022/06/21 09:11:16;;;;;;;4.53;1.90;;;28.00;79.70;;;;;;5031296;28;20218;-78
2022/06/21 09:14:11;;;;;;;7.00;1.98;;;26.90;81.40;;;;;;5032281;28;20678;-78
2022/06/21 09:17:02;;;;;;;4.05;2.15;;;26.10;84.40;;;;;;5033654;28;20612;-81
2022/06/21 09:19:51;;;;;;;2.63;1.63;;;25.90;86.10;;;;;;5044013;28;20217;-80
2022/06/21 09:22:36;;;;;;;4.15;1.70;;;26.30;86.00;;;;;;5048616;28;20233;-79
2022/06/21 09:25:21;;;;;;;3.25;1.50;;;26.60;85.10;;;;;;5044787;28;20307;-79
2022/06/21 09:27:58;;;;;;;2.78;1.50;;;26.90;84.30;;;;;;5043757;28;20209;-82
2022/06/21 09:30:31;;;;;;;4.95;1.75;;;27.20;82.50;;;;;;5033306;28;20201;-79
2022/06/21 09:33:05;;;;;;;3.40;1.20;;;27.30;81.30;;;;;;5038501;28;20221;-79
2022/06/21 09:35:36;;;;;;;5.28;1.45;;;27.30;81.00;;;;;;5038798;28;20257;-80
2022/06/21 09:38:22;;;;;;;4.75;1.67;;;27.30;80.20;;;;;;5040773;28;20271;-78
2022/06/21 09:41:12;;;;;;;4.53;1.33;;;27.20;80.20;;;;;;5036473;28;20217;-79
2022/06/21 09:44:00;;;;;;;3.38;1.50;;;27.20;80.40;;;;;;5042655;28;20677;-78
2022/06/21 09:46:52;;;;;;;3.97;1.50;;;27.00;80.30;;;;;;5040223;28;20209;-79
2022/06/21 09:49:29;;;;;;;2.85;1.63;;;27.10;79.80;;;;;;5041949;28;20537;-81
2022/06/21 09:52:07;;;;;;;3.60;1.50;;;27.20;79.80;;;;;;5038909;28;20208;-82
2022/06/21 09:54:37;;;;;;;3.90;1.13;;;27.20;78.40;;;;;;5046937;28;20229;-81
2022/06/21 09:57:12;;;;;;;3.30;1.65;;;27.20;77.90;;;;;;5042583;28;20292;-81
2022/06/21 09:59:51;;;;;;;3.45;1.60;;;27.10;77.70;;;;;;5039427;28;20271;-80
2022/06/21 10:02:23;;;;;;;1.77;0.95;;;27.10;76.40;;;;;;5040011;28;20290;-81
2022/06/21 10:05:17;;;;;;;3.03;1.17;;;27.00;76.50;;;;;;5037718;28;20245;-79
2022/06/21 10:08:08;;;;;;;4.10;1.50;;;27.10;76.60;;;;;;5040875;28;20212;-80
2022/06/21 10:10:58;;;;;;;2.92;1.75;;;26.90;74.30;;;;;;5041575;28;20221;-79
2022/06/21 10:13:44;;;;;;;3.70;1.10;;;26.90;76.30;;;;;;5041113;28;20205;-80
2022/06/21 10:16:26;;;;;;;2.97;1.45;;;26.90;74.90;;;;;;5039789;28;20668;-81
2022/06/21 10:19:32;;;;;;;3.00;1.00;;;26.90;77.00;;;;;;5038972;28;20303;-80
2022/06/21 10:22:15;;;;;;;2.25;1.00;;;27.10;75.00;;;;;;5031640;28;20233;-81
2022/06/21 10:25:08;;;;;;;2.65;1.40;;;27.10;76.30;;;;;;5039001;28;20953;-80
2022/06/21 10:27:59;;;;;;;2.50;1.10;;;27.10;78.80;;;;;;5037369;28;20237;-78
2022/06/21 10:30:48;;;;;;;3.80;1.52;;;27.10;78.00;;;;;;5038590;28;20213;-80
2022/06/21 10:33:37;;;;;;;3.25;1.42;;;27.10;79.80;;;;;;5039450;28;20631;-79
2022/06/21 10:36:10;;;;;;;2.10;1.13;;;27.10;77.50;;;;;;5038860;28;20621;-80
2022/06/21 10:38:45;;;;;;;3.38;1.45;;;26.90;77.90;;;;;;5041456;28;20657;-80
2022/06/21 10:41:35;;;;;;;3.50;1.30;;;26.70;78.60;;;;;;5038255;28;20221;-79
2022/06/21 10:44:26;;;;;;;2.50;1.40;;;26.50;79.10;;;;;;5036660;28;20245;-82
2022/06/21 10:47:03;;;;;;;5.65;1.50;;;26.50;79.30;;;;;;5037356;28;20231;-79
2022/06/21 10:49:48;;;;;;;2.08;1.13;;;26.30;76.90;;;;;;5041579;28;20247;-80
2022/06/21 10:52:31;;;;;;;4.25;1.30;;;26.10;76.90;;;;;;5039623;28;20853;-80
2022/06/21 10:55:32;;;;;;;1.95;1.00;;;25.80;78.80;;;;;;5038501;28;20224;-81
2022/06/21 10:58:10;;;;;;;3.22;1.10;;;25.70;80.00;;;;;;5039089;28;20232;-79
2022/06/21 11:01:21;;;;;;;3.63;1.38;;;25.50;80.80;;;;;;5038342;28;20209;-79
2022/06/21 11:04:05;;;;;;;3.80;1.25;;;25.40;79.70;;;;;;5037756;28;20248;-80
2022/06/21 11:07:07;;;;;;;4.03;1.00;;;25.40;79.50;;;;;;5037248;28;20267;-81
2022/06/21 11:09:56;;;;;;;3.05;1.00;;;25.20;77.00;;;;;;5033995;28;20617;-81
2022/06/21 11:15:58;;;;;;;2.53;0.90;;;25.20;76.40;;;;;;5036115;28;20212;-80
2022/06/21 11:18:37;;;;;;;2.22;1.10;;;25.50;74.50;;;;;;5038127;28;20221;-79
2022/06/21 11:21:19;;;;;;;1.33;1.08;;;25.60;75.10;;;;;;5038242;28;20221;-80
2022/06/21 11:24:07;;;;;;;5.35;1.52;;;25.70;74.70;;;;;;5037394;28;20221;-78
2022/06/21 11:26:40;;;;;;;3.45;1.27;;;25.90;72.50;;;;;;5036427;28;20612;-80
2022/06/21 11:29:38;;;;;;;4.25;1.80;;;25.80;74.60;;;;;;5039808;28;20209;-81
2022/06/21 11:32:21;;;;;;;1.77;1.20;;;26.00;76.20;;;;;;5039046;28;20363;-79
2022/06/21 11:35:01;;;;;;;1.77;1.10;;;26.20;76.20;;;;;;5036655;28;20233;-80
2022/06/21 11:37:36;;;;;;;4.70;1.50;;;26.30;76.30;;;;;;5036071;28;20270;-81
2022/06/21 11:40:22;;;;;;;5.13;1.42;;;26.50;74.30;;;;;;5036809;28;20216;-80
2022/06/21 11:42:59;;;;;;;1.73;1.27;;;26.60;77.70;;;;;;5037170;28;20238;-80
2022/06/21 11:45:40;;;;;;;3.63;1.85;;;26.80;77.00;;;;;;5040117;28;20204;-78
2022/06/21 11:48:07;;;;;;;4.38;1.30;;;26.90;76.60;;;;;;5038096;28;20217;-80
2022/06/21 11:50:42;;;;;;;5.47;1.70;;;26.80;76.90;;;;;;5035819;28;20201;-81
2022/06/21 11:53:45;;;;;;;3.22;1.50;;;26.70;75.70;;;;;;5037442;28;20302;-81
2022/06/21 11:56:39;;;;;;;3.60;1.60;;;26.40;75.70;;;;;;5039596;28;20674;-80
2022/06/21 11:59:11;;;;;;;3.45;1.50;;;26.30;76.50;;;;;;5040211;28;20212;-81
2022/06/21 12:02:04;;;;;;;4.85;1.42;;;26.20;76.30;;;;;;5040289;28;20263;-81
2022/06/21 12:04:39;;;;;;;4.47;1.60;;;26.30;75.60;;;;;;5033277;28;20291;-81
2022/06/21 12:07:26;;;;;;;3.53;1.50;;;26.40;74.90;;;;;;5038244;28;20216;-82
2022/06/21 12:09:55;;;;;;;2.55;1.90;;;26.70;74.40;;;;;;5038720;28;20320;-81
2022/06/21 12:13:00;;;;;;;4.97;1.70;;;27.00;74.20;;;;;;5040637;28;20209;-81
2022/06/21 12:15:45;;;;;;;5.13;1.75;;;27.30;75.80;;;;;;5037507;28;20697;-80
2022/06/21 12:18:19;;;;;;;3.20;1.50;;;27.40;76.30;;;;;;5036786;28;20206;-80
2022/06/21 12:21:15;;;;;;;2.88;1.90;;;27.40;75.10;;;;;;5040510;28;20267;-82
2022/06/21 12:23:48;;;;;;;2.35;1.42;;;27.30;75.10;;;;;;5039258;28;20765;-85
2022/06/21 12:26:19;;;;;;;2.55;1.45;;;27.30;76.10;;;;;;5028607;28;20305;-79
2022/06/21 12:28:46;;;;;;;5.40;1.80;;;27.40;74.70;;;;;;5028448;28;20213;-80
2022/06/21 12:31:20;;;;;;;3.10;1.60;;;27.40;74.60;;;;;;5028947;28;20221;-80
2022/06/21 12:33:52;;;;;;;4.05;1.40;;;27.50;74.80;;;;;;5033892;28;20205;-81
2022/06/21 12:36:55;;;;;;;3.03;1.25;;;27.60;74.40;;;;;;5037396;28;20233;-82
2022/06/21 12:39:29;;;;;;;4.45;1.35;;;27.40;73.20;;;;;;5038262;28;20221;-80
2022/06/21 12:42:17;;;;;;;4.63;1.65;;;27.40;74.30;;;;;;5043500;28;20228;-81
2022/06/21 12:45:17;;;;;;;3.25;1.30;;;27.50;73.50;;;;;;5032083;28;20268;-81
2022/06/21 12:48:26;;;;;;;3.35;1.63;;;27.50;75.10;;;;;;5032041;28;20264;-82
2022/06/21 12:51:12;;;;;;;3.35;1.50;;;27.40;73.60;;;;;;5026620;28;20214;-82
2022/06/21 12:53:57;;;;;;;3.83;1.30;;;27.30;74.80;;;;;;5038748;28;20209;-79
2022/06/21 12:57:02;;;;;;;3.22;1.45;;;27.40;74.60;;;;;;5034182;28;20569;-82
2022/06/21 13:00:03;;;;;;;3.75;1.38;;;27.30;74.70;;;;;;5029125;28;20743;-81
2022/06/21 13:02:54;;;;;;;3.97;1.45;;;26.90;73.50;;;;;;4931338;28;20311;-80
2022/06/21 13:05:50;;;;;;;4.15;1.30;;;26.70;75.30;;;;;;5038017;28;20678;-80
2022/06/21 13:09:04;;;;;;;3.00;1.45;;;26.50;74.80;;;;;;5031757;28;20240;-78
2022/06/21 13:11:47;;;;;;;1.05;0.90;;;26.30;74.30;;;;;;5029726;28;20213;-79
2022/06/21 13:14:57;;;;;;;3.55;1.40;;;26.20;73.00;;;;;;5041508;28;20225;-81
2022/06/21 13:17:33;;;;;;;1.48;0.88;;;26.20;71.70;;;;;;5048209;28;20707;-81
2022/06/21 13:20:23;;;;;;;3.38;1.33;;;26.10;73.10;;;;;;5044216;28;20229;-81
2022/06/21 13:22:59;;;;;;;2.45;1.00;;;26.10;72.50;;;;;;5043889;28;20240;-79
2022/06/21 13:25:40;;;;;;;1.77;1.48;;;26.20;72.50;;;;;;5046729;28;20226;-80
2022/06/21 13:28:41;;;;;;;2.75;1.25;;;26.20;74.30;;;;;;5040357;28;20209;-81
2022/06/21 13:31:16;;;;;;;3.72;1.05;;;26.00;72.50;;;;;;5039604;28;20232;-80
2022/06/21 13:34:04;;;;;;;5.95;1.10;;;26.00;74.10;;;;;;5042262;28;20668;-80
2022/06/21 13:36:46;;;;;;;1.63;0.90;;;25.90;74.80;;;;;;5045138;28;20246;-80
2022/06/21 13:39:31;;;;;;;4.28;1.20;;;26.00;74.70;;;;;;5042911;28;20276;-81
2022/06/21 13:42:40;;;;;;;2.85;1.20;;;26.00;75.10;;;;;;5050803;28;20286;-80
2022/06/21 13:45:23;;;;;;;5.05;1.75;;;26.20;75.00;;;;;;5051389;28;20201;-80
2022/06/21 13:48:16;;;;;;;4.18;1.00;;;26.20;73.30;;;;;;5058516;28;20197;-83
2022/06/21 13:51:05;;;;;;;1.25;1.02;;;26.40;74.90;;;;;;5055658;28;20311;-82
2022/06/21 13:54:00;;;;;;;2.97;1.30;;;26.80;74.80;;;;;;5047600;28;20209;-81
2022/06/21 13:56:41;;;;;;;2.40;1.13;;;27.10;73.60;;;;;;5041161;28;20220;-79
2022/06/21 13:59:22;;;;;;;2.55;1.00;;;27.20;72.70;;;;;;5071072;28;20563;-82
2022/06/21 14:02:00;;;;;;;4.68;1.58;;;27.40;72.80;;;;;;5045684;28;20201;-81
2022/06/21 14:04:36;;;;;;;3.58;1.10;;;27.40;72.70;;;;;;5043888;28;20247;-82
2022/06/21 14:07:18;;;;;;;3.83;1.35;;;27.30;72.50;;;;;;5042300;28;20284;-82
2022/06/21 14:10:04;;;;;;;2.45;1.05;;;27.30;72.20;;;;;;5042785;28;20274;-81